Time;durP1;ratioP1;P1;durP2;ratioP2;P2;SDS_P1;SDS_P2;PMS_P1;PMS_P2;Temp;Humidity;BMP_temperature;BMP_pressure;BME280_temperature;BME280_humidity;BME280_pressure;Samples;Min_cycle;Max_cycle;Signal;HPM_P1;HPM_P2
2024/03/14 00:02:17;;;;;;;18.65;5.32;;;11.30;99.90;;;;;;5025867;28;20029;-75
2024/03/14 00:04:43;;;;;;;15.90;4.20;;;11.30;99.90;;;;;;5026399;28;20038;-75
2024/03/14 00:07:08;;;;;;;18.00;4.20;;;11.20;99.90;;;;;;5025614;28;20291;-75
2024/03/14 00:09:35;;;;;;;16.83;3.75;;;11.30;99.90;;;;;;5026204;28;20044;-75
2024/03/14 00:12:00;;;;;;;19.10;5.32;;;11.20;99.90;;;;;;5029302;28;20026;-75
2024/03/14 00:14:26;;;;;;;12.00;3.17;;;11.20;99.90;;;;;;5027813;28;20030;-75
2024/03/14 00:16:52;;;;;;;11.13;3.78;;;11.20;99.90;;;;;;5026836;28;20280;-75
2024/03/14 00:19:20;;;;;;;11.68;3.40;;;11.20;99.90;;;;;;5024748;28;20034;-75
2024/03/14 00:21:46;;;;;;;7.90;2.72;;;11.20;99.90;;;;;;5026036;28;20051;-75
2024/03/14 00:24:12;;;;;;;8.38;3.05;;;11.20;99.90;;;;;;5024673;28;20287;-75
2024/03/14 00:26:38;;;;;;;8.82;3.05;;;11.20;99.90;;;;;;5024826;28;20177;-75
2024/03/14 00:29:05;;;;;;;9.85;2.78;;;11.20;99.90;;;;;;5025741;28;20026;-76
2024/03/14 00:31:37;;;;;;;9.30;2.40;;;11.20;99.90;;;;;;5024655;28;20025;-76
2024/03/14 00:34:03;;;;;;;11.02;3.30;;;11.20;99.90;;;;;;5009400;28;20030;-76
2024/03/14 00:36:29;;;;;;;7.43;2.30;;;11.20;99.90;;;;;;5024646;28;20322;-76
2024/03/14 00:38:54;;;;;;;6.97;2.17;;;11.20;99.90;;;;;;5024672;28;20022;-76
2024/03/14 00:41:20;;;;;;;4.20;1.92;;;11.20;99.90;;;;;;5025694;28;20030;-76
2024/03/14 00:43:47;;;;;;;8.82;2.50;;;11.20;99.90;;;;;;5024638;28;20042;-75
2024/03/14 00:46:14;;;;;;;11.50;3.17;;;11.20;99.90;;;;;;5032892;28;20048;-76
2024/03/14 00:48:40;;;;;;;8.27;2.67;;;11.20;99.90;;;;;;5044934;28;20032;-76
2024/03/14 00:51:07;;;;;;;11.15;3.10;;;11.20;99.90;;;;;;5045297;28;20179;-76
2024/03/14 00:53:34;;;;;;;11.80;2.95;;;11.20;99.90;;;;;;5027987;28;20021;-76
2024/03/14 00:56:01;;;;;;;9.82;2.83;;;11.30;99.90;;;;;;5045379;28;20188;-76
2024/03/14 00:58:28;;;;;;;16.05;3.50;;;11.20;99.90;;;;;;5028089;28;20175;-76
2024/03/14 01:00:53;;;;;;;11.50;3.92;;;11.20;99.90;;;;;;5027875;28;20187;-76
2024/03/14 01:03:19;;;;;;;9.75;2.95;;;11.30;99.90;;;;;;5027622;28;20037;-76
2024/03/14 01:05:45;;;;;;;15.85;4.07;;;11.20;99.90;;;;;;5011123;28;20034;-76
2024/03/14 01:08:11;;;;;;;15.48;4.18;;;11.20;99.90;;;;;;5027891;28;20045;-76
2024/03/14 01:10:36;;;;;;;24.52;5.88;;;11.20;99.90;;;;;;5045180;28;20084;-77
2024/03/14 01:13:06;;;;;;;21.13;6.45;;;11.20;99.90;;;;;;5027845;28;20029;-77
2024/03/14 01:15:32;;;;;;;21.42;6.30;;;11.30;99.90;;;;;;5028336;28;20067;-77
2024/03/14 01:17:57;;;;;;;20.75;5.20;;;11.20;99.90;;;;;;5027739;28;20025;-77
2024/03/14 01:20:23;;;;;;;19.77;5.90;;;11.30;99.90;;;;;;5045044;28;20037;-77
2024/03/14 01:22:48;;;;;;;22.40;6.38;;;11.30;99.90;;;;;;5027568;28;20032;-77
2024/03/14 01:25:18;;;;;;;23.88;6.55;;;11.20;99.90;;;;;;5027529;28;20059;-77
2024/03/14 01:27:45;;;;;;;22.90;6.03;;;11.30;99.90;;;;;;5028134;28;20054;-76
2024/03/14 01:30:12;;;;;;;31.65;7.78;;;11.30;99.90;;;;;;5028351;28;20541;-76
2024/03/14 01:32:39;;;;;;;24.52;6.53;;;11.30;99.90;;;;;;5031262;28;20280;-76
2024/03/14 01:35:08;;;;;;;27.58;6.97;;;11.30;99.90;;;;;;5048550;28;20037;-77
2024/03/14 01:37:34;;;;;;;17.48;5.35;;;11.30;99.90;;;;;;5048280;28;20044;-76
2024/03/14 01:40:01;;;;;;;22.27;6.65;;;11.20;99.90;;;;;;5031313;28;20029;-76
2024/03/14 01:42:28;;;;;;;11.68;5.25;;;11.20;99.90;;;;;;5031394;28;20025;-76
2024/03/14 01:45:09;;;;;;;18.77;6.10;;;11.20;99.90;;;;;;5048416;28;20021;-77
2024/03/14 01:47:34;;;;;;;20.42;6.35;;;11.20;99.90;;;;;;5030876;28;20041;-78
2024/03/14 01:50:01;;;;;;;19.90;6.47;;;11.20;99.90;;;;;;5031051;28;20021;-77
2024/03/14 01:52:27;;;;;;;19.13;5.65;;;11.20;99.90;;;;;;5031195;28;20029;-77
2024/03/14 01:54:53;;;;;;;17.20;5.03;;;11.20;99.90;;;;;;5031006;28;20104;-77
2024/03/14 01:57:19;;;;;;;19.42;5.72;;;11.20;99.90;;;;;;5048262;28;20021;-77
2024/03/14 01:59:48;;;;;;;18.40;5.47;;;11.20;99.90;;;;;;5030929;28;20033;-77
2024/03/14 02:02:13;;;;;;;17.10;5.38;;;11.20;99.90;;;;;;5030541;28;20059;-77
2024/03/14 02:04:47;;;;;;;22.42;7.32;;;11.20;99.90;;;;;;5047890;28;20037;-77
2024/03/14 02:07:13;;;;;;;28.58;6.75;;;11.20;99.90;;;;;;5030721;28;20026;-77
2024/03/14 02:09:39;;;;;;;24.73;6.80;;;11.20;99.90;;;;;;5030840;28;20358;-77
2024/03/14 02:12:07;;;;;;;19.83;7.05;;;11.20;99.90;;;;;;5048082;28;20041;-75
2024/03/14 02:14:33;;;;;;;17.48;6.15;;;11.20;99.90;;;;;;5030792;28;20033;-77
2024/03/14 02:16:59;;;;;;;16.17;6.40;;;11.20;99.90;;;;;;5014037;28;20172;-77
2024/03/14 02:19:24;;;;;;;19.80;6.40;;;11.20;99.90;;;;;;5030398;28;20034;-77
2024/03/14 02:21:50;;;;;;;20.58;6.68;;;11.20;99.90;;;;;;5030370;28;20096;-77
2024/03/14 02:24:17;;;;;;;17.83;7.03;;;11.20;99.90;;;;;;5030339;28;20052;-77
2024/03/14 02:26:42;;;;;;;20.52;7.15;;;11.10;99.90;;;;;;5030396;28;20076;-77
2024/03/14 02:29:08;;;;;;;20.02;6.07;;;11.10;99.90;;;;;;5013768;28;20033;-77
2024/03/14 02:31:34;;;;;;;13.02;5.55;;;11.10;99.90;;;;;;5013829;28;20024;-77
2024/03/14 02:34:00;;;;;;;23.95;7.05;;;11.10;99.90;;;;;;5030177;28;20250;-77
2024/03/14 02:36:26;;;;;;;18.98;5.25;;;11.10;99.90;;;;;;5013541;28;20034;-77
2024/03/14 02:38:54;;;;;;;13.13;4.68;;;11.20;99.90;;;;;;5013558;28;20044;-77
2024/03/14 02:41:20;;;;;;;11.10;4.30;;;11.10;99.90;;;;;;5030046;28;20103;-77
2024/03/14 02:43:49;;;;;;;21.00;5.93;;;11.10;99.90;;;;;;5029996;28;20033;-75
2024/03/14 02:46:14;;;;;;;17.90;6.95;;;11.20;99.90;;;;;;5030140;28;20116;-75
2024/03/14 02:48:40;;;;;;;22.70;7.07;;;11.10;99.90;;;;;;5029776;28;20168;-75
2024/03/14 02:51:06;;;;;;;16.23;6.90;;;11.10;99.90;;;;;;5029613;28;20040;-76
2024/03/14 02:53:31;;;;;;;14.30;5.28;;;11.20;99.90;;;;;;5029707;28;20070;-76
2024/03/14 02:55:57;;;;;;;19.85;6.10;;;11.10;99.90;;;;;;5029514;28;20029;-75
2024/03/14 02:58:23;;;;;;;26.83;8.18;;;11.20;99.90;;;;;;5029464;28;20025;-75
2024/03/14 03:00:51;;;;;;;21.58;6.88;;;11.10;99.90;;;;;;5029617;28;20035;-75
2024/03/14 03:03:17;;;;;;;19.17;7.20;;;11.20;99.90;;;;;;5029698;28;20033;-76
2024/03/14 03:05:43;;;;;;;21.70;8.18;;;11.10;99.90;;;;;;5047133;28;20207;-75
2024/03/14 03:08:08;;;;;;;20.42;6.45;;;11.10;99.90;;;;;;5029560;28;20024;-75
2024/03/14 03:10:34;;;;;;;12.88;4.70;;;11.10;99.90;;;;;;5012833;28;20192;-75
2024/03/14 03:12:59;;;;;;;24.77;7.78;;;11.10;99.90;;;;;;5029153;28;20025;-76
2024/03/14 03:15:25;;;;;;;26.02;8.35;;;11.10;99.90;;;;;;5012784;28;20048;-75
2024/03/14 03:17:51;;;;;;;15.52;4.90;;;11.20;99.90;;;;;;5029274;28;20160;-75
2024/03/14 03:20:18;;;;;;;19.52;6.68;;;11.10;99.90;;;;;;5029270;28;20053;-76
2024/03/14 03:25:32;;;;;;;21.45;8.63;;;11.10;99.90;;;;;;5046708;28;20076;-76
2024/03/14 03:28:09;;;;;;;21.48;7.78;;;11.20;99.90;;;;;;5029589;28;20025;-75
2024/03/14 03:30:34;;;;;;;26.52;7.95;;;11.20;99.90;;;;;;5029282;28;20032;-75
2024/03/14 03:33:00;;;;;;;18.83;6.25;;;11.20;99.90;;;;;;5029111;28;20033;-75
2024/03/14 03:35:26;;;;;;;16.95;7.07;;;11.20;99.90;;;;;;5029068;28;20036;-75
2024/03/14 03:37:52;;;;;;;17.80;5.85;;;11.20;99.90;;;;;;5028943;28;20022;-75
2024/03/14 03:40:24;;;;;;;17.75;6.80;;;11.20;99.90;;;;;;5028730;28;20033;-75
2024/03/14 03:42:52;;;;;;;30.50;8.02;;;11.20;99.90;;;;;;5046089;28;20021;-75
2024/03/14 03:45:18;;;;;;;19.48;7.35;;;11.20;99.90;;;;;;5028730;28;20029;-75
2024/03/14 03:47:45;;;;;;;14.02;5.55;;;11.20;99.90;;;;;;5029106;28;20095;-75
2024/03/14 03:50:11;;;;;;;17.45;6.40;;;11.30;99.90;;;;;;5012121;28;20033;-75
2024/03/14 03:52:39;;;;;;;30.48;6.32;;;11.20;99.90;;;;;;5028173;28;20075;-75
2024/03/14 03:55:06;;;;;;;12.75;5.43;;;11.20;99.90;;;;;;5028378;28;20041;-75
2024/03/14 03:57:32;;;;;;;13.15;5.28;;;11.20;99.90;;;;;;5028762;28;20148;-75
2024/03/14 03:59:58;;;;;;;14.55;5.35;;;11.20;99.90;;;;;;5028486;28;20029;-76
2024/03/14 04:02:26;;;;;;;13.00;5.53;;;11.20;99.90;;;;;;5011894;28;20055;-76
2024/03/14 04:04:56;;;;;;;11.88;4.28;;;11.20;99.90;;;;;;5028725;28;20032;-75
2024/03/14 04:07:22;;;;;;;11.68;5.40;;;11.20;99.90;;;;;;5012631;28;20021;-76
2024/03/14 04:09:49;;;;;;;9.85;4.35;;;11.20;99.90;;;;;;5028443;28;20039;-75
2024/03/14 04:12:14;;;;;;;25.35;7.43;;;11.10;99.90;;;;;;5012031;28;20021;-75
2024/03/14 04:14:40;;;;;;;18.30;6.15;;;11.20;99.90;;;;;;5045793;28;20044;-76
2024/03/14 04:17:07;;;;;;;25.48;7.20;;;11.20;99.90;;;;;;5028434;28;20026;-76
2024/03/14 04:19:33;;;;;;;14.65;6.07;;;11.10;99.90;;;;;;5028402;28;20025;-76
2024/03/14 04:21:59;;;;;;;20.90;5.63;;;11.10;99.90;;;;;;5011869;28;20029;-75
2024/03/14 04:24:25;;;;;;;18.90;5.30;;;11.10;99.90;;;;;;5028237;28;20219;-75
2024/03/14 04:26:51;;;;;;;14.35;4.18;;;11.10;99.90;;;;;;5028238;28;20291;-76
2024/03/14 04:29:19;;;;;;;11.38;3.28;;;11.10;99.90;;;;;;5028102;28;20026;-76
2024/03/14 04:31:46;;;;;;;8.45;3.38;;;11.10;99.90;;;;;;5028430;28;20044;-75
2024/03/14 04:34:12;;;;;;;8.88;3.05;;;11.10;99.90;;;;;;5045240;28;20033;-75
2024/03/14 04:36:37;;;;;;;8.38;2.78;;;11.00;99.90;;;;;;5011539;28;20072;-76
2024/03/14 04:39:08;;;;;;;10.43;3.08;;;11.10;99.90;;;;;;5011626;28;20061;-75
2024/03/14 04:41:35;;;;;;;7.85;2.13;;;11.10;99.90;;;;;;5028965;28;20289;-76
2024/03/14 04:44:03;;;;;;;5.28;2.28;;;11.00;99.90;;;;;;5028166;28;20290;-75
2024/03/14 04:46:31;;;;;;;9.88;2.60;;;11.10;99.90;;;;;;5017601;28;20068;-76
2024/03/14 04:48:57;;;;;;;6.13;2.72;;;11.10;99.90;;;;;;5025170;28;20230;-76
2024/03/14 04:51:23;;;;;;;13.13;3.75;;;11.10;99.90;;;;;;4992042;28;20093;-76
2024/03/14 04:53:49;;;;;;;13.57;4.35;;;11.20;99.90;;;;;;5008460;28;20033;-76
2024/03/14 04:56:15;;;;;;;8.25;3.90;;;11.20;99.90;;;;;;5025489;28;20026;-76
2024/03/14 04:58:41;;;;;;;7.07;2.83;;;11.20;99.90;;;;;;5025367;28;20022;-75
2024/03/14 05:01:07;;;;;;;9.38;3.70;;;11.20;99.90;;;;;;5025356;28;20049;-76
2024/03/14 05:03:33;;;;;;;14.15;3.58;;;11.20;99.90;;;;;;5007860;28;20030;-76
2024/03/14 05:05:59;;;;;;;8.35;3.80;;;11.20;99.90;;;;;;5011923;28;20026;-76
2024/03/14 05:08:25;;;;;;;10.85;3.20;;;11.20;99.90;;;;;;5029108;28;20294;-76
2024/03/14 05:10:50;;;;;;;13.43;3.75;;;11.20;99.90;;;;;;5029377;28;20017;-76
2024/03/14 05:13:19;;;;;;;11.48;2.90;;;11.10;99.90;;;;;;5029303;28;20029;-76
2024/03/14 05:15:45;;;;;;;6.75;2.33;;;11.10;99.90;;;;;;5012473;28;20022;-75
2024/03/14 05:18:11;;;;;;;5.97;2.47;;;11.10;99.90;;;;;;5028818;28;20041;-75
2024/03/14 05:20:37;;;;;;;8.10;2.60;;;11.10;99.90;;;;;;5029179;28;20024;-76
2024/03/14 05:23:03;;;;;;;7.22;2.50;;;11.10;99.90;;;;;;5011834;28;20088;-76
2024/03/14 05:25:28;;;;;;;8.73;2.75;;;11.10;99.90;;;;;;5011673;28;20088;-75
2024/03/14 05:27:54;;;;;;;5.63;2.95;;;11.20;99.90;;;;;;5011719;28;20175;-75
2024/03/14 05:30:23;;;;;;;10.88;3.08;;;11.10;99.90;;;;;;5011842;28;20040;-76
2024/03/14 05:32:49;;;;;;;7.90;2.60;;;11.20;99.90;;;;;;5011426;28;20018;-76
2024/03/14 05:35:14;;;;;;;10.48;3.28;;;11.10;99.90;;;;;;5011464;28;20036;-76
2024/03/14 05:37:41;;;;;;;12.32;2.53;;;11.10;99.90;;;;;;5011376;28;20291;-76
2024/03/14 05:40:12;;;;;;;11.77;3.13;;;11.10;99.90;;;;;;5011729;28;20022;-76
2024/03/14 05:42:38;;;;;;;11.52;3.08;;;11.10;99.90;;;;;;5044088;28;20147;-76
2024/03/14 05:45:04;;;;;;;13.00;3.05;;;11.10;99.90;;;;;;5027665;28;20030;-76
2024/03/14 05:47:30;;;;;;;11.50;3.05;;;11.10;99.90;;;;;;5029249;28;20121;-76
2024/03/14 05:49:55;;;;;;;20.70;3.67;;;11.10;99.90;;;;;;5030999;28;20025;-75
2024/03/14 05:52:21;;;;;;;12.18;3.50;;;11.10;99.90;;;;;;5048580;28;20041;-76
2024/03/14 05:54:47;;;;;;;13.77;3.20;;;11.10;99.90;;;;;;5030672;28;20030;-76
2024/03/14 05:57:14;;;;;;;11.95;3.58;;;11.10;99.90;;;;;;5030436;28;20025;-76
2024/03/14 05:59:40;;;;;;;11.57;3.00;;;11.10;99.90;;;;;;5031142;28;20321;-76
2024/03/14 06:02:07;;;;;;;11.85;3.20;;;11.10;99.90;;;;;;5030952;28;20025;-76
2024/03/14 06:04:34;;;;;;;9.13;2.70;;;11.10;99.90;;;;;;5030633;28;20026;-76
2024/03/14 06:07:01;;;;;;;14.50;2.90;;;11.10;99.90;;;;;;5030667;28;20346;-76
2024/03/14 06:09:42;;;;;;;6.90;2.90;;;11.10;99.90;;;;;;5030742;28;20026;-76
2024/03/14 06:12:08;;;;;;;15.35;3.60;;;11.10;99.90;;;;;;5033036;28;20025;-76
2024/03/14 06:14:34;;;;;;;14.43;2.58;;;11.10;99.90;;;;;;5030372;28;20040;-77
2024/03/14 06:17:00;;;;;;;10.40;2.67;;;11.10;99.90;;;;;;5046148;28;20032;-76
2024/03/14 06:19:26;;;;;;;13.07;3.28;;;11.10;99.90;;;;;;5030427;28;20029;-76
2024/03/14 06:21:52;;;;;;;5.80;2.38;;;11.10;99.90;;;;;;5013963;28;20045;-75
2024/03/14 06:24:17;;;;;;;13.60;4.68;;;11.10;99.90;;;;;;5030144;28;20034;-75
2024/03/14 06:26:45;;;;;;;13.48;4.60;;;11.10;99.90;;;;;;5030248;28;20017;-75
2024/03/14 06:29:11;;;;;;;16.67;4.43;;;11.10;99.90;;;;;;5030458;28;20049;-75
2024/03/14 06:31:37;;;;;;;16.45;4.07;;;11.10;99.90;;;;;;5030504;28;20024;-78
2024/03/14 06:34:03;;;;;;;16.52;3.28;;;11.10;99.90;;;;;;5030360;28;20113;-75
2024/03/14 06:36:28;;;;;;;14.00;4.18;;;11.10;99.90;;;;;;5030109;28;20060;-75
2024/03/14 06:38:57;;;;;;;16.35;4.35;;;11.10;99.90;;;;;;5029925;28;20021;-76
2024/03/14 06:41:22;;;;;;;23.55;5.60;;;11.00;99.90;;;;;;5030417;28;20033;-75
2024/03/14 06:43:48;;;;;;;19.15;5.57;;;11.10;99.90;;;;;;5029957;28;20132;-75
2024/03/14 06:46:16;;;;;;;13.35;4.07;;;11.00;99.90;;;;;;5029608;28;20053;-75
2024/03/14 06:48:41;;;;;;;14.20;4.03;;;11.10;99.90;;;;;;5030103;28;20017;-75
2024/03/14 06:51:07;;;;;;;18.65;5.07;;;11.00;99.90;;;;;;5047211;28;20035;-76
2024/03/14 06:53:33;;;;;;;17.80;4.80;;;11.00;99.90;;;;;;5029714;28;20032;-76
2024/03/14 06:55:59;;;;;;;11.10;3.55;;;11.00;99.90;;;;;;5029626;28;20029;-76
2024/03/14 06:58:24;;;;;;;19.45;5.25;;;11.00;99.90;;;;;;5029273;28;20041;-75
2024/03/14 07:00:50;;;;;;;16.58;4.25;;;11.00;99.90;;;;;;5046804;28;20025;-77
2024/03/14 07:03:16;;;;;;;17.58;5.10;;;11.00;99.90;;;;;;5047112;28;20029;-76
2024/03/14 07:05:43;;;;;;;16.52;4.00;;;11.00;99.90;;;;;;5047155;28;20029;-75
2024/03/14 07:08:11;;;;;;;21.48;5.47;;;10.90;99.90;;;;;;5029736;28;20056;-76
2024/03/14 07:10:39;;;;;;;13.10;4.40;;;11.00;99.90;;;;;;5029865;28;20017;-77
2024/03/14 07:13:07;;;;;;;14.68;3.80;;;10.90;99.90;;;;;;5029642;28;20066;-76
2024/03/14 07:15:35;;;;;;;13.43;3.53;;;10.90;99.90;;;;;;5029105;28;20279;-76
2024/03/14 07:18:05;;;;;;;12.77;3.53;;;10.90;99.90;;;;;;5029881;28;20035;-76
2024/03/14 07:20:34;;;;;;;19.52;4.38;;;10.90;99.90;;;;;;5029480;28;20025;-76
2024/03/14 07:23:00;;;;;;;19.73;3.87;;;10.90;99.90;;;;;;5029694;28;20025;-76
2024/03/14 07:25:26;;;;;;;15.25;3.47;;;10.90;99.90;;;;;;5029128;28;20287;-76
2024/03/14 07:27:51;;;;;;;13.32;3.38;;;10.90;99.90;;;;;;5027571;28;20030;-76
2024/03/14 07:30:17;;;;;;;14.18;4.25;;;10.90;99.90;;;;;;5028851;28;20083;-76
2024/03/14 07:32:43;;;;;;;17.75;4.00;;;10.90;99.90;;;;;;5029194;28;20338;-76
2024/03/14 07:35:12;;;;;;;14.77;3.78;;;10.90;99.90;;;;;;5046323;28;20187;-77
2024/03/14 07:37:38;;;;;;;16.17;4.00;;;10.90;99.90;;;;;;5012381;28;20233;-76
2024/03/14 07:40:05;;;;;;;12.93;4.03;;;10.90;99.90;;;;;;5028854;28;20084;-76
2024/03/14 07:42:31;;;;;;;14.15;3.75;;;10.90;99.90;;;;;;5028624;28;20104;-76
2024/03/14 07:44:57;;;;;;;11.65;3.60;;;10.90;99.90;;;;;;5028339;28;20037;-76
2024/03/14 07:47:25;;;;;;;22.17;4.03;;;11.00;99.90;;;;;;5012132;28;20041;-75
2024/03/14 07:49:51;;;;;;;12.18;3.72;;;10.90;99.90;;;;;;5029027;28;20180;-75
2024/03/14 07:52:17;;;;;;;11.15;3.80;;;11.00;99.90;;;;;;5012031;28;20037;-77
2024/03/14 07:54:45;;;;;;;11.63;2.83;;;10.90;99.90;;;;;;5028695;28;20085;-76
2024/03/14 07:57:17;;;;;;;10.40;3.85;;;11.00;99.90;;;;;;5029227;28;20025;-76
2024/03/14 07:59:43;;;;;;;19.55;3.70;;;10.90;99.90;;;;;;5029047;28;20035;-76
2024/03/14 08:02:12;;;;;;;11.85;3.03;;;11.00;99.90;;;;;;5012085;28;20187;-76
2024/03/14 08:04:38;;;;;;;13.55;4.10;;;11.00;99.90;;;;;;5028484;28;20150;-76
2024/03/14 08:07:17;;;;;;;8.23;3.00;;;11.00;99.90;;;;;;5028861;28;20018;-76
2024/03/14 08:09:47;;;;;;;22.48;6.47;;;11.00;99.90;;;;;;5013984;28;20026;-75
2024/03/14 08:12:13;;;;;;;;;;;11.00;99.90;;;;;;5045871;28;20025;-75
2024/03/14 08:14:43;;;;;;;9.32;3.25;;;11.00;99.90;;;;;;5045600;28;20127;-76
2024/03/14 08:17:13;;;;;;;19.58;4.50;;;11.00;99.90;;;;;;5028873;28;20079;-76
2024/03/14 08:19:46;;;;;;;13.68;2.83;;;11.00;99.90;;;;;;5028957;28;20025;-76
2024/03/14 08:22:12;;;;;;;16.17;3.97;;;11.10;99.90;;;;;;5011694;28;20045;-76
2024/03/14 08:24:47;;;;;;;15.85;4.55;;;11.10;99.90;;;;;;5046064;28;20159;-76
2024/03/14 08:27:13;;;;;;;14.10;4.45;;;11.10;99.90;;;;;;5030193;28;20041;-76
2024/03/14 08:29:42;;;;;;;21.35;6.18;;;11.20;99.90;;;;;;5028423;28;20302;-76
2024/03/14 08:32:09;;;;;;;18.10;5.40;;;11.20;99.90;;;;;;5028294;28;20091;-76
2024/03/14 08:34:34;;;;;;;12.73;3.53;;;11.30;99.90;;;;;;5045610;28;20026;-75
2024/03/14 08:37:01;;;;;;;17.10;5.20;;;11.20;99.90;;;;;;5028320;28;20223;-77
2024/03/14 08:39:26;;;;;;;14.20;4.45;;;11.30;99.90;;;;;;5027552;28;20032;-76
2024/03/14 08:41:53;;;;;;;9.65;2.75;;;11.20;99.90;;;;;;5028008;28;20291;-75
2024/03/14 08:44:26;;;;;;;11.43;4.07;;;11.30;99.90;;;;;;5012237;28;20029;-74
2024/03/14 08:46:52;;;;;;;12.98;4.00;;;11.50;99.90;;;;;;5009955;28;20053;-75
2024/03/14 08:49:18;;;;;;;21.50;5.45;;;11.70;99.90;;;;;;5027075;28;20141;-76
2024/03/14 08:51:45;;;;;;;12.63;4.50;;;11.60;99.90;;;;;;5028044;28;20288;-77
2024/03/14 08:56:46;;;;;;;16.83;4.15;;;11.50;99.90;;;;;;5026513;28;20022;-75
2024/03/14 08:59:13;;;;;;;10.45;3.97;;;11.40;99.90;;;;;;5025338;28;20223;-76
2024/03/14 09:01:39;;;;;;;14.80;4.10;;;11.40;99.90;;;;;;5024865;28;20080;-76
2024/03/14 09:04:05;;;;;;;14.55;4.63;;;11.40;99.90;;;;;;5024370;28;20157;-77
2024/03/14 09:06:33;;;;;;;11.90;3.70;;;11.40;99.90;;;;;;5024077;28;20032;-76
2024/03/14 09:09:00;;;;;;;8.35;3.22;;;11.40;99.90;;;;;;5024306;28;20025;-76
2024/03/14 09:11:28;;;;;;;13.65;4.00;;;11.40;99.90;;;;;;5024379;28;20097;-76
2024/03/14 09:13:54;;;;;;;18.23;5.32;;;11.30;99.90;;;;;;5024299;28;20057;-76
2024/03/14 09:16:21;;;;;;;12.93;3.90;;;11.40;99.90;;;;;;5024023;28;20030;-77
2024/03/14 09:18:48;;;;;;;13.05;4.82;;;11.40;99.90;;;;;;5025085;28;20167;-76
2024/03/14 09:21:14;;;;;;;6.00;2.72;;;11.40;99.90;;;;;;5024248;28;20030;-76
2024/03/14 09:23:40;;;;;;;16.50;4.22;;;11.50;99.90;;;;;;5024011;28;20060;-76
2024/03/14 09:26:05;;;;;;;10.07;3.38;;;11.60;99.90;;;;;;5024199;28;20018;-75
2024/03/14 09:28:31;;;;;;;6.78;3.00;;;11.60;99.90;;;;;;5023857;28;20160;-76
2024/03/14 09:31:00;;;;;;;10.98;3.45;;;11.60;99.90;;;;;;5025007;28;20089;-77
2024/03/14 09:33:27;;;;;;;15.30;4.28;;;11.70;99.90;;;;;;5023615;28;20022;-76
2024/03/14 09:35:53;;;;;;;13.88;4.35;;;11.80;99.90;;;;;;5023184;28;20021;-76
2024/03/14 09:38:18;;;;;;;12.82;4.55;;;12.70;99.90;;;;;;5007808;28;20040;-76
2024/03/14 09:40:44;;;;;;;8.57;3.47;;;12.70;99.90;;;;;;5007302;28;20068;-76
2024/03/14 09:43:19;;;;;;;11.68;3.88;;;12.50;99.90;;;;;;5023715;28;20022;-76
2024/03/14 09:45:45;;;;;;;14.55;3.35;;;12.30;99.90;;;;;;5027360;28;20299;-75
2024/03/14 09:48:11;;;;;;;13.25;3.90;;;12.20;99.90;;;;;;5044014;28;20029;-77
2024/03/14 09:50:37;;;;;;;9.23;3.50;;;12.30;99.90;;;;;;5027008;28;20097;-78
2024/03/14 09:53:03;;;;;;;18.02;4.82;;;12.40;99.90;;;;;;5030835;28;20013;-77
2024/03/14 09:55:30;;;;;;;13.80;3.78;;;12.20;99.90;;;;;;5030631;28;20049;-77
2024/03/14 09:58:06;;;;;;;9.45;3.33;;;12.00;99.90;;;;;;5014263;28;20213;-77
2024/03/14 10:00:31;;;;;;;9.27;2.78;;;11.90;99.90;;;;;;5014232;28;20191;-76
2024/03/14 10:02:58;;;;;;;10.07;2.92;;;11.80;99.90;;;;;;5030238;28;20025;-76
2024/03/14 10:05:24;;;;;;;12.75;3.05;;;11.80;99.90;;;;;;5013760;28;20029;-76
2024/03/14 10:07:50;;;;;;;17.13;4.65;;;11.80;99.90;;;;;;5030063;28;20025;-78
2024/03/14 10:10:15;;;;;;;6.70;2.75;;;11.80;99.90;;;;;;5030353;28;20049;-77
2024/03/14 10:12:51;;;;;;;7.97;3.53;;;11.80;99.90;;;;;;5030276;28;20018;-76
2024/03/14 10:15:20;;;;;;;11.57;2.78;;;11.80;99.90;;;;;;5030277;28;20267;-76
2024/03/14 10:17:47;;;;;;;12.40;3.45;;;11.70;99.90;;;;;;5030213;28;20056;-76
2024/03/14 10:20:13;;;;;;;9.05;2.83;;;11.70;99.90;;;;;;5030117;28;20358;-77
2024/03/14 10:22:41;;;;;;;11.63;3.58;;;11.60;99.90;;;;;;5047477;28;20029;-77
2024/03/14 10:25:14;;;;;;;10.23;3.85;;;11.50;99.90;;;;;;5013462;28;20088;-77
2024/03/14 10:27:44;;;;;;;14.07;4.22;;;11.50;99.90;;;;;;5014047;28;20025;-77
2024/03/14 10:30:12;;;;;;;11.73;3.90;;;11.60;99.90;;;;;;5030711;28;20195;-76
2024/03/14 10:32:38;;;;;;;5.72;2.88;;;11.60;99.90;;;;;;5029910;28;20024;-76
2024/03/14 10:35:10;;;;;;;14.23;4.70;;;11.60;99.90;;;;;;5029766;28;20033;-76
2024/03/14 10:37:38;;;;;;;3.72;2.28;;;11.60;99.90;;;;;;5047281;28;20061;-76
2024/03/14 10:40:06;;;;;;;12.00;3.05;;;11.60;99.90;;;;;;5029931;28;20062;-76
2024/03/14 10:42:32;;;;;;;8.32;3.30;;;11.60;99.90;;;;;;5030273;28;20036;-76
2024/03/14 10:44:59;;;;;;;16.05;4.78;;;11.60;99.90;;;;;;5029277;28;20232;-77
2024/03/14 10:47:26;;;;;;;10.23;3.95;;;11.60;99.90;;;;;;5012857;28;20311;-76
2024/03/14 10:49:53;;;;;;;12.35;4.32;;;11.60;99.90;;;;;;5012915;28;20111;-76
2024/03/14 10:52:21;;;;;;;8.52;3.92;;;11.60;99.90;;;;;;5029393;28;20029;-76
2024/03/14 10:54:46;;;;;;;7.60;3.50;;;11.70;99.90;;;;;;5029536;28;20080;-76
2024/03/14 10:57:19;;;;;;;9.27;3.00;;;11.60;99.90;;;;;;5029088;28;20033;-76
2024/03/14 10:59:45;;;;;;;12.50;3.90;;;11.60;99.90;;;;;;5029452;28;20037;-75
2024/03/14 11:02:14;;;;;;;9.32;4.85;;;11.50;99.90;;;;;;5029092;28;20052;-77
2024/03/14 11:04:47;;;;;;;13.25;3.95;;;11.50;99.90;;;;;;5013286;28;20037;-76
2024/03/14 11:07:13;;;;;;;13.10;3.60;;;11.50;99.90;;;;;;5012860;28;20195;-76
2024/03/14 11:09:53;;;;;;;10.93;3.03;;;11.50;99.90;;;;;;5012489;28;20025;-77
2024/03/14 11:12:20;;;;;;;18.00;4.78;;;11.50;99.90;;;;;;5029163;28;20214;-75
2024/03/14 11:14:54;;;;;;;6.32;2.78;;;11.50;99.90;;;;;;5028860;28;20040;-76
2024/03/14 11:17:20;;;;;;;16.38;3.95;;;11.50;99.90;;;;;;5046147;28;20052;-76
2024/03/14 11:19:51;;;;;;;7.00;3.25;;;11.50;99.90;;;;;;5029347;28;20250;-76
2024/03/14 11:22:17;;;;;;;8.80;3.90;;;11.50;99.90;;;;;;5028798;28;20329;-76
2024/03/14 11:24:47;;;;;;;12.30;3.78;;;11.60;99.90;;;;;;5028967;28;20037;-75
2024/03/14 11:27:13;;;;;;;9.38;3.08;;;11.60;99.90;;;;;;5012827;28;20258;-76
2024/03/14 11:29:39;;;;;;;26.48;13.15;;;11.60;99.90;;;;;;5012440;28;20021;-75
2024/03/14 11:32:11;;;;;;;12.77;4.72;;;11.50;99.90;;;;;;5028423;28;20080;-76
2024/03/14 11:34:37;;;;;;;11.73;4.05;;;11.50;99.90;;;;;;5028601;28;20294;-76
2024/03/14 11:37:03;;;;;;;21.25;13.55;;;11.60;99.90;;;;;;5011917;28;20032;-75
2024/03/14 11:39:28;;;;;;;18.95;10.50;;;11.60;99.90;;;;;;5028679;28;20111;-76
2024/03/14 11:42:10;;;;;;;8.98;3.08;;;11.70;99.90;;;;;;5028311;28;20104;-76
2024/03/14 11:44:39;;;;;;;10.43;3.60;;;11.60;99.90;;;;;;5028582;28;20040;-77
2024/03/14 11:47:05;;;;;;;6.60;2.75;;;11.60;99.90;;;;;;5011983;28;20052;-76
2024/03/14 11:49:33;;;;;;;5.97;2.75;;;11.60;99.90;;;;;;5029197;28;20029;-77
2024/03/14 11:52:00;;;;;;;4.80;2.15;;;11.60;99.90;;;;;;5028401;28;20105;-77
2024/03/14 11:54:26;;;;;;;5.75;2.40;;;11.60;99.90;;;;;;5045664;28;20092;-78
2024/03/14 11:56:51;;;;;;;9.10;3.05;;;11.70;99.90;;;;;;5045505;28;20169;-77
2024/03/14 11:59:20;;;;;;;5.90;2.30;;;11.70;99.90;;;;;;5028270;28;20041;-77
2024/03/14 12:01:47;;;;;;;7.47;2.08;;;11.70;99.90;;;;;;5028964;28;20029;-77
2024/03/14 12:04:13;;;;;;;6.05;2.08;;;11.70;99.90;;;;;;5045023;28;20029;-77
2024/03/14 12:06:41;;;;;;;3.63;1.83;;;11.70;99.90;;;;;;5027786;28;20139;-77
2024/03/14 12:09:08;;;;;;;3.47;1.88;;;11.70;99.90;;;;;;5011453;28;20301;-76
2024/03/14 12:11:33;;;;;;;4.35;2.00;;;11.70;99.90;;;;;;5028008;28;20032;-76
2024/03/14 12:13:59;;;;;;;33.35;25.23;;;11.80;99.90;;;;;;5010984;28;20184;-75
2024/03/14 12:16:25;;;;;;;9.32;5.65;;;11.80;99.90;;;;;;5027482;28;20069;-76
2024/03/14 12:18:53;;;;;;;13.70;11.05;;;11.80;99.90;;;;;;5044082;28;20231;-76
2024/03/14 12:21:19;;;;;;;7.35;4.30;;;11.70;99.90;;;;;;5028356;28;20076;-76
2024/03/14 12:23:54;;;;;;;8.50;6.47;;;11.80;99.90;;;;;;5011332;28;20033;-76
2024/03/14 12:26:21;;;;;;;4.53;2.17;;;11.80;99.90;;;;;;5028058;28;20033;-77
2024/03/14 12:28:48;;;;;;;4.45;2.47;;;11.80;99.90;;;;;;5028000;28;20040;-77
2024/03/14 12:31:14;;;;;;;2.35;1.85;;;11.80;99.90;;;;;;5045139;28;20017;-77
2024/03/14 12:33:44;;;;;;;6.82;2.03;;;11.80;99.90;;;;;;5027969;28;20089;-77
2024/03/14 12:36:16;;;;;;;3.95;2.03;;;11.90;99.90;;;;;;5045016;28;20029;-77
2024/03/14 12:38:48;;;;;;;4.53;1.90;;;11.90;99.90;;;;;;5045057;28;20036;-76
2024/03/14 12:41:14;;;;;;;6.18;2.22;;;11.90;99.90;;;;;;5027616;28;20063;-76
2024/03/14 12:43:40;;;;;;;10.30;3.03;;;11.90;99.90;;;;;;5027284;28;20029;-76
2024/03/14 12:46:07;;;;;;;7.32;2.38;;;11.90;99.90;;;;;;5027158;28;20119;-76